KRGK

Red Wing Regional Airport

Red Wing, Minnesota, USA
METAR KRGK 191455Z AUTO 14005KT 10SM CLR M01/M06 A2963 RMK AO2
Observed Flight Rules
Jan-19 @ 14:55 UTC (35 minutes ago) Visual Flight Rules
Wind Visibility Clouds
140° at 5 knots 10 miles
  • Clear skies
Temperatures Readings
Current -1°C / 30°F
Dewpoint -6°C / 21°F
Humidity 69%
Altimeter 29.63" Hg
Pressure 1003 hPa
Elevation 239
METAR KRGK 191455Z AUTO 14005KT 10SM CLR M01/M06 A2963 RMK AO2
Observed Flight Rules
Jan-19 @ 14:55 UTC
(35 minutes ago)
VFR
Wind Visibility
140° at 5 knots 10 miles
Clouds
  • Clear skies
Temperature Dewpoint
-1°C / 30°F -6°C / 21°F
Humidity Altimeter Pressure
69% 29.63" Hg 1003 hPa